Time;durP1;ratioP1;P1;durP2;ratioP2;P2;SDS_P1;SDS_P2;PMS_P1;PMS_P2;Temp;Humidity;BMP_temperature;BMP_pressure;BME280_temperature;BME280_humidity;BME280_pressure;Samples;Min_cycle;Max_cycle;Signal;HPM_P1;HPM_P2
2021/04/30 00:01:34;;;;;;;2.67;1.45;;;21.20;43.70;;;;;;5093749;28;20024;-46
2021/04/30 00:04:00;;;;;;;1.98;1.38;;;21.20;43.70;;;;;;5092737;28;20043;-51
2021/04/30 00:06:25;;;;;;;2.63;1.27;;;21.20;43.70;;;;;;5093193;28;20051;-54
2021/04/30 00:08:51;;;;;;;2.10;1.08;;;21.20;43.70;;;;;;5091329;28;20418;-48
2021/04/30 00:11:17;;;;;;;1.50;1.05;;;21.20;43.60;;;;;;5093498;28;20054;-48
2021/04/30 00:13:42;;;;;;;1.85;1.02;;;21.20;43.60;;;;;;5092547;28;20035;-54
2021/04/30 00:16:08;;;;;;;1.95;0.90;;;21.20;43.50;;;;;;5084815;28;20109;-49
2021/04/30 00:18:34;;;;;;;2.17;1.20;;;21.20;43.50;;;;;;5093601;28;20038;-46
2021/04/30 00:21:01;;;;;;;2.00;1.10;;;21.20;43.60;;;;;;5092385;28;20590;-46
2021/04/30 00:23:28;;;;;;;1.83;1.17;;;21.20;43.60;;;;;;5093095;28;20036;-51
2021/04/30 00:25:55;;;;;;;1.73;1.08;;;21.20;43.50;;;;;;5092251;28;20052;-49
2021/04/30 00:28:21;;;;;;;2.15;1.10;;;21.20;43.40;;;;;;5093097;28;20036;-47
2021/04/30 00:30:48;;;;;;;2.03;1.17;;;21.20;43.50;;;;;;5092469;28;20385;-46
2021/04/30 00:33:14;;;;;;;1.85;1.30;;;21.20;43.50;;;;;;5092715;28;20032;-46
2021/04/30 00:35:41;;;;;;;1.60;1.10;;;21.20;43.50;;;;;;5092635;28;20081;-58
2021/04/30 00:38:07;;;;;;;1.58;0.93;;;21.20;43.50;;;;;;5093131;28;20039;-46
2021/04/30 00:40:32;;;;;;;2.35;0.90;;;21.20;43.50;;;;;;5092287;28;20036;-52
2021/04/30 00:42:58;;;;;;;1.75;0.90;;;21.20;43.40;;;;;;5090664;28;20606;-46
2021/04/30 00:45:24;;;;;;;2.38;1.40;;;21.20;43.40;;;;;;5092929;28;20028;-48
2021/04/30 00:47:53;;;;;;;1.85;1.23;;;21.20;43.40;;;;;;5091842;28;20036;-47
2021/04/30 00:50:21;;;;;;;1.80;0.90;;;21.20;43.30;;;;;;5092753;28;20038;-50
2021/04/30 00:52:47;;;;;;;1.52;1.15;;;21.20;43.30;;;;;;5083316;28;20063;-48
2021/04/30 00:55:15;;;;;;;2.88;1.23;;;21.20;43.30;;;;;;5092878;28;20053;-48
2021/04/30 00:57:45;;;;;;;1.45;0.90;;;21.20;43.30;;;;;;5091724;28;20036;-53
2021/04/30 01:00:11;;;;;;;1.25;0.90;;;21.20;43.30;;;;;;5092112;28;20446;-42
2021/04/30 01:02:39;;;;;;;1.70;1.00;;;21.20;43.20;;;;;;5092835;28;20093;-47
2021/04/30 01:05:06;;;;;;;1.90;0.80;;;21.10;43.10;;;;;;5091990;28;20044;-47
2021/04/30 01:07:32;;;;;;;1.63;0.75;;;21.20;43.20;;;;;;5091923;28;20833;-50
2021/04/30 01:09:58;;;;;;;1.35;0.90;;;21.20;43.80;;;;;;5091575;28;20046;-46
2021/04/30 01:12:24;;;;;;;1.80;1.17;;;21.20;43.10;;;;;;5092022;28;20039;-49
2021/04/30 01:14:50;;;;;;;1.55;0.90;;;21.20;43.10;;;;;;5091461;28;20032;-53
2021/04/30 01:17:16;;;;;;;1.25;0.80;;;21.20;43.10;;;;;;5092621;28;20085;-46
2021/04/30 01:19:42;;;;;;;1.00;0.70;;;21.20;43.10;;;;;;5091492;28;20427;-54
2021/04/30 01:22:08;;;;;;;1.30;0.85;;;21.10;43.00;;;;;;5092179;28;20059;-50
2021/04/30 01:24:33;;;;;;;1.23;0.70;;;21.20;43.10;;;;;;5085741;28;20478;-48
2021/04/30 01:26:59;;;;;;;2.67;0.90;;;21.10;43.00;;;;;;5081366;28;20035;-49
2021/04/30 01:29:26;;;;;;;1.95;1.02;;;21.10;42.90;;;;;;5091862;28;20032;-48
2021/04/30 01:31:52;;;;;;;0.90;0.60;;;21.20;43.00;;;;;;5090961;28;20066;-46
2021/04/30 01:34:17;;;;;;;1.60;0.98;;;21.20;43.00;;;;;;5092175;28;20060;-43
2021/04/30 01:36:43;;;;;;;2.38;0.88;;;21.10;42.90;;;;;;5090848;28;20484;-50
2021/04/30 01:39:12;;;;;;;1.95;0.90;;;21.10;42.90;;;;;;5091910;28;20050;-47
2021/04/30 01:41:38;;;;;;;1.88;1.13;;;21.10;42.80;;;;;;5089317;28;20089;-45
2021/04/30 01:44:12;;;;;;;1.25;0.80;;;21.10;42.80;;;;;;5091186;28;20051;-48
2021/04/30 01:46:39;;;;;;;1.25;1.08;;;21.10;42.80;;;;;;5087233;28;20020;-53
2021/04/30 01:49:07;;;;;;;1.35;1.02;;;21.10;42.80;;;;;;5090630;28;20024;-50
2021/04/30 01:51:35;;;;;;;2.58;1.00;;;21.10;42.70;;;;;;5082062;28;20033;-49
2021/04/30 01:54:05;;;;;;;2.33;0.93;;;21.10;42.70;;;;;;5083840;28;20091;-53
2021/04/30 01:56:32;;;;;;;1.30;0.80;;;21.10;42.80;;;;;;5088395;28;20036;-49
2021/04/30 01:58:57;;;;;;;1.58;0.93;;;21.10;42.80;;;;;;5085980;28;20119;-46
2021/04/30 02:01:23;;;;;;;1.42;0.90;;;21.10;43.40;;;;;;5084880;28;20126;-47
2021/04/30 02:03:49;;;;;;;1.45;0.80;;;21.10;42.80;;;;;;5084506;28;20052;-48
2021/04/30 02:06:15;;;;;;;1.08;0.75;;;21.10;42.80;;;;;;5084238;28;20491;-54
2021/04/30 02:08:40;;;;;;;1.20;0.73;;;21.10;42.80;;;;;;5088915;28;20112;-55
2021/04/30 02:11:06;;;;;;;1.35;0.82;;;21.10;42.70;;;;;;5088074;28;20032;-50
2021/04/30 02:13:32;;;;;;;1.70;1.10;;;21.10;42.80;;;;;;5085923;28;20597;-47
2021/04/30 02:15:58;;;;;;;1.48;0.90;;;21.10;42.70;;;;;;5081785;28;20043;-47
2021/04/30 02:18:25;;;;;;;1.73;1.00;;;21.10;42.70;;;;;;5084455;28;20048;-51
2021/04/30 02:20:51;;;;;;;2.70;1.02;;;21.10;42.60;;;;;;5082516;28;20033;-51
2021/04/30 02:23:18;;;;;;;1.73;0.98;;;21.10;42.70;;;;;;5084051;28;20024;-47
2021/04/30 02:25:43;;;;;;;2.05;1.00;;;21.10;42.60;;;;;;5083618;28;20453;-50
2021/04/30 02:28:09;;;;;;;2.58;1.00;;;21.10;42.60;;;;;;5082910;28;20055;-54
2021/04/30 02:30:37;;;;;;;1.95;0.73;;;21.10;42.60;;;;;;5082427;28;20066;-51
2021/04/30 02:33:04;;;;;;;1.95;1.10;;;21.10;42.70;;;;;;5089989;28;20115;-51
2021/04/30 02:35:40;;;;;;;2.20;0.75;;;21.10;42.70;;;;;;5091013;28;20024;-50
2021/04/30 02:38:08;;;;;;;3.58;1.10;;;21.10;43.30;;;;;;5090813;28;20039;-52
2021/04/30 02:40:36;;;;;;;3.03;0.90;;;21.10;42.70;;;;;;5088962;28;20485;-46
2021/04/30 02:43:06;;;;;;;4.03;1.05;;;21.10;42.70;;;;;;5089864;28;20111;-48
2021/04/30 02:45:32;;;;;;;1.75;1.00;;;21.10;42.70;;;;;;5090547;28;20492;-54
2021/04/30 02:47:59;;;;;;;2.15;0.93;;;21.10;42.70;;;;;;5088648;28;20023;-50
2021/04/30 02:50:28;;;;;;;1.73;1.52;;;21.10;42.70;;;;;;5090661;28;20036;-50
2021/04/30 02:52:55;;;;;;;2.03;0.90;;;21.10;42.70;;;;;;5090127;28;20098;-51
2021/04/30 02:55:23;;;;;;;2.72;0.90;;;21.10;42.60;;;;;;5089023;28;20473;-52
2021/04/30 02:57:54;;;;;;;2.80;0.90;;;21.10;42.60;;;;;;5089652;28;20102;-51
2021/04/30 03:00:22;;;;;;;2.50;1.13;;;21.10;42.70;;;;;;5089467;28;20073;-50
2021/04/30 03:02:47;;;;;;;1.10;0.80;;;21.10;42.70;;;;;;5088454;28;20035;-52
2021/04/30 03:05:14;;;;;;;2.00;0.70;;;21.10;42.70;;;;;;5082397;28;20109;-53
2021/04/30 03:07:39;;;;;;;1.30;0.88;;;21.10;42.60;;;;;;5089333;28;20035;-58
2021/04/30 03:10:06;;;;;;;1.30;0.80;;;21.10;42.70;;;;;;5089274;28;20432;-55
2021/04/30 03:12:32;;;;;;;3.80;1.00;;;21.10;42.60;;;;;;5089802;28;20036;-50
2021/04/30 03:14:58;;;;;;;2.60;1.25;;;21.10;42.60;;;;;;5089100;28;20423;-51
2021/04/30 03:17:24;;;;;;;2.67;1.10;;;21.10;42.60;;;;;;5089766;28;20107;-48
2021/04/30 03:19:50;;;;;;;2.60;0.93;;;21.10;42.60;;;;;;5088668;28;20055;-48
2021/04/30 03:22:15;;;;;;;2.45;1.17;;;21.10;42.60;;;;;;5089701;28;20040;-52
2021/04/30 03:24:41;;;;;;;1.90;0.82;;;21.10;42.60;;;;;;5088923;28;20074;-56
2021/04/30 03:27:06;;;;;;;1.63;0.82;;;21.10;42.60;;;;;;5089603;28;20036;-50
2021/04/30 03:29:32;;;;;;;2.30;0.80;;;21.10;42.60;;;;;;5089558;28;20067;-48
2021/04/30 03:31:58;;;;;;;1.83;0.93;;;21.10;42.60;;;;;;5082350;28;20036;-48
2021/04/30 03:34:23;;;;;;;2.33;0.88;;;21.10;42.60;;;;;;5087742;28;20031;-53
2021/04/30 03:36:49;;;;;;;1.63;1.13;;;21.10;42.60;;;;;;5089423;28;20024;-50
2021/04/30 03:39:15;;;;;;;1.30;0.70;;;21.10;42.60;;;;;;5089366;28;20131;-45
2021/04/30 03:41:40;;;;;;;2.20;0.85;;;21.10;42.60;;;;;;5089522;28;20085;-54
2021/04/30 03:44:06;;;;;;;1.25;0.80;;;21.10;42.60;;;;;;5089621;28;20054;-51
2021/04/30 03:46:32;;;;;;;1.20;0.70;;;21.10;42.60;;;;;;5088369;28;20036;-51
2021/04/30 03:48:57;;;;;;;1.27;0.73;;;21.10;42.60;;;;;;5088971;28;20504;-48
2021/04/30 03:51:23;;;;;;;0.60;0.60;;;21.10;42.60;;;;;;5089647;28;20434;-48
2021/04/30 03:53:49;;;;;;;1.02;0.60;;;21.10;42.60;;;;;;5088737;28;20434;-50
2021/04/30 03:56:14;;;;;;;2.08;0.80;;;21.10;42.60;;;;;;5089497;28;20123;-49
2021/04/30 03:58:40;;;;;;;1.05;0.80;;;21.10;42.60;;;;;;5087377;28;20059;-54
2021/04/30 04:01:06;;;;;;;1.33;0.95;;;21.10;42.60;;;;;;5089883;28;20354;-50
2021/04/30 04:03:35;;;;;;;1.92;1.13;;;21.10;42.50;;;;;;5088944;28;20044;-52
2021/04/30 04:06:01;;;;;;;1.45;0.88;;;21.10;42.60;;;;;;5088671;28;20020;-46
2021/04/30 04:08:29;;;;;;;3.33;1.00;;;21.10;42.60;;;;;;5089675;28;20031;-47
2021/04/30 04:10:55;;;;;;;2.78;0.88;;;21.10;42.60;;;;;;5088687;28;20111;-51
2021/04/30 04:13:23;;;;;;;1.90;1.10;;;21.10;42.60;;;;;;5089355;28;20472;-51
2021/04/30 04:15:50;;;;;;;1.38;0.73;;;21.10;42.50;;;;;;5088736;28;20107;-51
2021/04/30 04:18:17;;;;;;;1.83;0.85;;;21.10;42.50;;;;;;5091434;28;20047;-41
2021/04/30 04:20:43;;;;;;;1.20;0.82;;;21.10;42.50;;;;;;5091903;28;20492;-51
2021/04/30 04:23:09;;;;;;;1.58;0.85;;;21.10;42.50;;;;;;5093174;28;20035;-47
2021/04/30 04:25:37;;;;;;;2.90;1.00;;;21.10;42.60;;;;;;5092722;28;20389;-51
2021/04/30 04:28:04;;;;;;;1.77;0.95;;;21.10;42.50;;;;;;5092489;28;20047;-43
2021/04/30 04:30:30;;;;;;;1.58;0.90;;;21.10;42.50;;;;;;5093127;28;20035;-49
2021/04/30 04:32:56;;;;;;;2.67;1.27;;;21.10;42.50;;;;;;5089911;28;20024;-52
2021/04/30 04:35:21;;;;;;;1.92;1.10;;;21.10;43.20;;;;;;5086347;28;20040;-54
2021/04/30 04:37:47;;;;;;;2.55;0.85;;;21.10;42.50;;;;;;5092679;28;20024;-53
2021/04/30 04:40:15;;;;;;;1.75;1.02;;;21.10;42.50;;;;;;5086656;28;20161;-54
2021/04/30 04:42:41;;;;;;;2.47;1.08;;;21.10;42.50;;;;;;5092451;28;20134;-54
2021/04/30 04:45:08;;;;;;;2.03;1.08;;;21.10;42.50;;;;;;5092293;28;20103;-45
2021/04/30 04:47:33;;;;;;;1.23;0.80;;;21.10;42.50;;;;;;5092592;28;20024;-48
2021/04/30 04:49:59;;;;;;;1.88;0.90;;;21.10;42.50;;;;;;5091761;28;20318;-47
2021/04/30 04:52:25;;;;;;;2.67;1.20;;;21.10;42.50;;;;;;5091452;28;20465;-48
2021/04/30 04:54:50;;;;;;;1.70;0.90;;;21.10;42.50;;;;;;5091527;28;20028;-49
2021/04/30 04:57:17;;;;;;;2.92;1.00;;;21.10;42.40;;;;;;5092361;28;20043;-49
2021/04/30 04:59:42;;;;;;;3.47;0.80;;;21.10;42.50;;;;;;5091566;28;20046;-56
2021/04/30 05:02:08;;;;;;;1.27;0.75;;;21.10;42.40;;;;;;5092391;28;20028;-48
2021/04/30 05:04:33;;;;;;;1.30;0.90;;;21.10;42.50;;;;;;5091869;28;20130;-56
2021/04/30 05:06:59;;;;;;;1.17;0.90;;;21.10;42.40;;;;;;5083597;28;20441;-48
2021/04/30 05:09:27;;;;;;;3.10;0.80;;;21.10;42.40;;;;;;5092063;28;20036;-50
2021/04/30 05:11:53;;;;;;;1.50;1.02;;;21.10;42.40;;;;;;5091075;28;20032;-47
2021/04/30 05:14:19;;;;;;;5.90;1.20;;;21.10;42.40;;;;;;5091330;28;20077;-45
2021/04/30 05:16:44;;;;;;;2.42;1.00;;;21.10;42.50;;;;;;5091449;28;20081;-47
2021/04/30 05:19:10;;;;;;;2.85;0.80;;;21.10;42.50;;;;;;5091736;28;20043;-47
2021/04/30 05:21:39;;;;;;;2.67;0.88;;;21.10;42.60;;;;;;5092044;28;20422;-47
2021/04/30 05:24:05;;;;;;;4.72;1.05;;;21.10;42.80;;;;;;5091608;28;20028;-46
2021/04/30 05:26:31;;;;;;;4.20;0.93;;;21.10;43.00;;;;;;5090353;28;20451;-48
2021/04/30 05:28:57;;;;;;;2.83;0.82;;;21.20;43.30;;;;;;5090484;28;20115;-47
2021/04/30 05:31:23;;;;;;;3.38;1.00;;;21.20;43.10;;;;;;5091795;28;20515;-47
2021/04/30 05:33:49;;;;;;;5.70;1.10;;;21.20;43.00;;;;;;5090764;28;20089;-52
2021/04/30 05:36:15;;;;;;;4.65;1.33;;;21.20;43.20;;;;;;5090123;28;20036;-48
2021/04/30 05:38:40;;;;;;;4.90;0.88;;;21.20;43.20;;;;;;5091367;28;20059;-53
2021/04/30 05:41:06;;;;;;;2.05;1.05;;;21.10;43.10;;;;;;5090042;28;20169;-50
2021/04/30 05:43:31;;;;;;;4.28;1.23;;;21.10;43.30;;;;;;5092283;28;20353;-46
2021/04/30 05:45:57;;;;;;;3.33;1.00;;;21.10;43.70;;;;;;5082353;28;20029;-52
2021/04/30 05:48:23;;;;;;;4.28;1.20;;;21.10;43.70;;;;;;5082357;28;20020;-46
2021/04/30 05:50:48;;;;;;;6.80;0.90;;;21.10;43.80;;;;;;5083243;28;20031;-52
2021/04/30 05:53:14;;;;;;;3.25;0.90;;;21.10;43.80;;;;;;5088655;28;20373;-45
2021/04/30 05:55:40;;;;;;;4.90;1.20;;;21.20;43.90;;;;;;5091028;28;20020;-53
2021/04/30 05:58:06;;;;;;;7.38;0.93;;;21.20;44.00;;;;;;5090948;28;20024;-50
2021/04/30 06:00:31;;;;;;;1.25;0.98;;;21.20;44.20;;;;;;5091306;28;20035;-48
2021/04/30 06:02:58;;;;;;;7.10;1.15;;;21.20;44.30;;;;;;5090903;28;20469;-52
2021/04/30 06:05:23;;;;;;;5.03;0.65;;;21.20;44.50;;;;;;5091136;28;20063;-52
2021/04/30 06:07:49;;;;;;;6.03;0.70;;;21.20;44.70;;;;;;5090480;28;20032;-45
2021/04/30 06:10:15;;;;;;;2.42;0.90;;;21.20;44.80;;;;;;5089121;28;20122;-46
2021/04/30 06:12:41;;;;;;;6.72;1.20;;;21.20;44.90;;;;;;5090994;28;20354;-53
2021/04/30 06:15:08;;;;;;;3.83;1.40;;;21.20;45.00;;;;;;5091797;28;20036;-45
2021/04/30 06:17:33;;;;;;;4.15;1.05;;;21.20;45.00;;;;;;5084736;28;20032;-47
2021/04/30 06:19:59;;;;;;;6.53;0.95;;;21.20;45.10;;;;;;5083036;28;20043;-45
2021/04/30 06:22:25;;;;;;;4.18;1.23;;;21.20;45.10;;;;;;5090264;28;20036;-49
2021/04/30 06:24:51;;;;;;;2.90;0.75;;;21.20;45.30;;;;;;5089887;28;20028;-49
2021/04/30 06:27:17;;;;;;;6.75;0.82;;;21.20;45.20;;;;;;5091547;28;20034;-45
2021/04/30 06:29:42;;;;;;;3.95;1.30;;;21.20;45.40;;;;;;5090286;28;20043;-53
2021/04/30 06:32:08;;;;;;;4.53;1.20;;;21.20;45.60;;;;;;5089270;28;20351;-50
2021/04/30 06:34:34;;;;;;;3.03;0.98;;;21.20;45.60;;;;;;5081886;28;20031;-47
2021/04/30 06:37:00;;;;;;;5.28;1.10;;;21.20;45.70;;;;;;5079653;28;20499;-48
2021/04/30 06:39:25;;;;;;;5.03;1.33;;;21.20;45.80;;;;;;5082282;28;20036;-44
2021/04/30 06:41:52;;;;;;;3.35;1.05;;;21.20;45.70;;;;;;5089071;28;20040;-51
2021/04/30 06:44:18;;;;;;;9.23;1.27;;;21.30;45.90;;;;;;5087346;28;20032;-46
2021/04/30 06:46:44;;;;;;;4.35;1.02;;;21.30;46.00;;;;;;5088791;28;20089;-55
2021/04/30 06:49:10;;;;;;;5.43;1.10;;;21.30;46.00;;;;;;5089764;28;20054;-45
2021/04/30 06:51:36;;;;;;;8.43;1.13;;;21.30;46.00;;;;;;5089888;28;20031;-48
2021/04/30 06:54:01;;;;;;;6.85;1.00;;;21.30;46.00;;;;;;5088510;28;20082;-51
2021/04/30 06:56:31;;;;;;;3.10;0.93;;;21.30;46.10;;;;;;5089828;28;20106;-48
2021/04/30 06:58:57;;;;;;;5.25;1.50;;;21.30;46.10;;;;;;5085191;28;20024;-49
2021/04/30 07:01:23;;;;;;;4.88;1.05;;;21.30;46.00;;;;;;5083069;28;20028;-48
2021/04/30 07:03:50;;;;;;;5.32;1.17;;;21.30;46.00;;;;;;5081839;28;20090;-50
2021/04/30 07:06:19;;;;;;;5.38;2.25;;;21.30;46.10;;;;;;5080207;28;20530;-50
2021/04/30 07:08:44;;;;;;;4.05;0.80;;;21.30;46.10;;;;;;5086851;28;20042;-56
2021/04/30 07:11:11;;;;;;;4.72;1.25;;;21.30;46.10;;;;;;5084434;28;20039;-51
2021/04/30 07:13:36;;;;;;;3.47;0.90;;;21.30;46.10;;;;;;5087188;28;20028;-48
2021/04/30 07:16:03;;;;;;;2.50;0.90;;;21.30;46.20;;;;;;5085229;28;20032;-52
2021/04/30 07:18:29;;;;;;;4.82;1.02;;;21.40;46.30;;;;;;5086602;28;20047;-52
2021/04/30 07:20:54;;;;;;;1.83;0.93;;;21.30;46.20;;;;;;5084964;28;20445;-49
2021/04/30 07:23:21;;;;;;;2.28;0.70;;;21.30;46.20;;;;;;5086962;28;20103;-49
2021/04/30 07:25:47;;;;;;;2.55;0.80;;;21.40;46.40;;;;;;5088670;28;20089;-55
2021/04/30 07:28:12;;;;;;;3.75;0.88;;;21.40;46.30;;;;;;5089302;28;20066;-41
2021/04/30 07:30:38;;;;;;;2.60;0.98;;;21.40;46.40;;;;;;5089292;28;20056;-50
2021/04/30 07:33:04;;;;;;;2.55;0.70;;;21.40;46.40;;;;;;5083152;28;20051;-50
2021/04/30 07:35:30;;;;;;;1.23;0.70;;;21.40;46.30;;;;;;5082104;28;20376;-48
2021/04/30 07:37:55;;;;;;;3.38;1.08;;;21.40;46.30;;;;;;5083969;28;20028;-45
2021/04/30 07:40:21;;;;;;;2.30;1.02;;;21.40;46.30;;;;;;5081351;28;20119;-53
2021/04/30 07:42:47;;;;;;;2.45;1.05;;;21.40;46.30;;;;;;5080926;28;20111;-53
2021/04/30 07:45:13;;;;;;;3.58;0.95;;;21.40;46.30;;;;;;5083591;28;20063;-47
2021/04/30 07:47:39;;;;;;;2.72;0.95;;;21.40;46.40;;;;;;5082920;28;20033;-50
2021/04/30 07:50:07;;;;;;;2.13;0.95;;;21.40;46.40;;;;;;5080952;28;20024;-50
2021/04/30 07:52:33;;;;;;;2.13;0.82;;;21.40;46.50;;;;;;5085012;28;20023;-49
2021/04/30 07:55:01;;;;;;;3.05;1.00;;;21.40;46.70;;;;;;5089372;28;20038;-47
2021/04/30 07:57:33;;;;;;;4.25;1.00;;;21.40;46.60;;;;;;5088326;28;20028;-48
2021/04/30 07:59:59;;;;;;;3.08;0.70;;;21.40;46.60;;;;;;5087224;28;20465;-47
2021/04/30 08:02:24;;;;;;;5.22;0.85;;;21.40;46.60;;;;;;5085394;28;20043;-45
2021/04/30 08:04:50;;;;;;;3.80;0.90;;;21.40;46.70;;;;;;5086512;28;20089;-45
2021/04/30 08:07:16;;;;;;;3.53;1.48;;;21.40;46.70;;;;;;5090026;28;20478;-53
2021/04/30 08:09:42;;;;;;;1.70;0.80;;;21.40;46.80;;;;;;5089962;28;20040;-47
2021/04/30 08:12:08;;;;;;;4.32;1.05;;;21.40;46.70;;;;;;5086271;28;20028;-48
2021/04/30 08:14:34;;;;;;;2.00;1.02;;;21.40;46.70;;;;;;5087360;28;20103;-50
2021/04/30 08:17:00;;;;;;;2.33;1.00;;;21.40;46.80;;;;;;5085922;28;20124;-54
2021/04/30 08:19:26;;;;;;;2.63;0.90;;;21.40;46.80;;;;;;5086132;28;20031;-49
2021/04/30 08:21:53;;;;;;;2.97;1.00;;;21.40;46.70;;;;;;5088649;28;20032;-49
2021/04/30 08:24:20;;;;;;;6.72;1.17;;;21.40;46.80;;;;;;5087554;28;20032;-52
2021/04/30 08:26:46;;;;;;;3.90;1.38;;;21.40;46.80;;;;;;5086175;28;20016;-54
2021/04/30 08:29:12;;;;;;;5.68;1.00;;;21.30;46.60;;;;;;5084396;28;20043;-48
2021/04/30 08:31:38;;;;;;;14.23;1.33;;;21.40;46.40;;;;;;5086278;28;20028;-48
2021/04/30 08:34:04;;;;;;;6.18;1.00;;;21.40;46.30;;;;;;5086858;28;20024;-48
2021/04/30 08:36:29;;;;;;;6.60;0.98;;;21.40;46.30;;;;;;5087409;28;20481;-49
2021/04/30 08:38:56;;;;;;;6.25;1.10;;;21.40;46.30;;;;;;5080279;28;20036;-54
2021/04/30 08:41:25;;;;;;;6.85;0.98;;;21.30;46.20;;;;;;5086022;28;20047;-48
2021/04/30 08:43:52;;;;;;;3.88;1.08;;;21.40;46.00;;;;;;5083763;28;20024;-49
2021/04/30 08:46:17;;;;;;;2.67;0.80;;;21.40;46.10;;;;;;5085417;28;20031;-53
2021/04/30 08:48:44;;;;;;;1.65;0.98;;;21.40;46.30;;;;;;5086149;28;20376;-47
2021/04/30 08:51:10;;;;;;;2.90;1.10;;;21.40;46.10;;;;;;5087952;28;20106;-51
2021/04/30 08:53:38;;;;;;;5.32;1.10;;;21.40;46.10;;;;;;5086214;28;20028;-49
2021/04/30 08:56:05;;;;;;;8.85;1.55;;;21.40;46.00;;;;;;5084315;28;20020;-47
2021/04/30 08:58:33;;;;;;;5.07;1.05;;;21.40;45.90;;;;;;5084632;28;20059;-41
2021/04/30 09:00:59;;;;;;;7.90;1.20;;;21.40;46.30;;;;;;5091000;28;20103;-50
2021/04/30 09:03:26;;;;;;;3.53;0.82;;;21.40;46.30;;;;;;5086781;28;20162;-50
2021/04/30 09:05:57;;;;;;;2.72;0.88;;;21.40;46.30;;;;;;5088577;28;20055;-49
2021/04/30 09:08:25;;;;;;;2.10;0.73;;;21.40;46.30;;;;;;5086749;28;20021;-46
2021/04/30 09:10:51;;;;;;;3.25;0.80;;;21.30;46.30;;;;;;5086758;28;20124;-47
2021/04/30 09:13:20;;;;;;;2.85;0.80;;;21.40;46.50;;;;;;5093301;28;20389;-47
2021/04/30 09:15:48;;;;;;;4.20;0.80;;;21.40;46.40;;;;;;5087243;28;20024;-53
2021/04/30 09:18:25;;;;;;;4.82;0.90;;;21.40;46.50;;;;;;5092674;28;20051;-51
2021/04/30 09:20:51;;;;;;;6.68;1.02;;;21.40;46.40;;;;;;5092007;28;20119;-52
2021/04/30 09:23:30;;;;;;;2.72;1.02;;;21.40;46.50;;;;;;5088558;28;20111;-47
2021/04/30 09:25:56;;;;;;;7.05;1.13;;;21.40;46.60;;;;;;5089605;28;20103;-52
2021/04/30 09:28:22;;;;;;;6.85;0.93;;;21.40;46.50;;;;;;5091955;28;20123;-53
2021/04/30 09:30:48;;;;;;;5.55;1.17;;;21.40;47.00;;;;;;5092620;28;20020;-53
2021/04/30 09:33:16;;;;;;;1.70;0.93;;;21.40;46.60;;;;;;5090893;28;20500;-44
2021/04/30 09:35:45;;;;;;;3.10;1.40;;;21.40;46.60;;;;;;5091147;28;20177;-47
2021/04/30 09:38:21;;;;;;;4.10;1.00;;;21.40;46.60;;;;;;5089950;28;20050;-49
2021/04/30 09:40:49;;;;;;;5.88;1.10;;;21.40;46.50;;;;;;5082283;28;20389;-54
2021/04/30 09:43:15;;;;;;;2.20;1.02;;;21.40;46.50;;;;;;5092713;28;20031;-48
2021/04/30 09:45:42;;;;;;;3.28;1.00;;;21.40;46.50;;;;;;5092716;28;20363;-50
2021/04/30 09:48:10;;;;;;;4.13;0.88;;;21.40;46.10;;;;;;5088608;28;20028;-50
2021/04/30 09:50:36;;;;;;;2.13;0.90;;;21.40;46.30;;;;;;5092214;28;20092;-48
2021/04/30 09:53:04;;;;;;;4.18;1.30;;;21.40;46.00;;;;;;5090788;28;20416;-53
2021/04/30 09:55:42;;;;;;;5.43;1.23;;;21.40;45.20;;;;;;5092387;28;20028;-49
2021/04/30 09:58:18;;;;;;;2.95;1.25;;;21.40;45.70;;;;;;5088683;28;20032;-48
2021/04/30 10:00:52;;;;;;;4.55;1.08;;;21.40;45.70;;;;;;5082601;28;20487;-50
2021/04/30 10:03:25;;;;;;;4.50;1.55;;;21.40;45.90;;;;;;5084299;28;20062;-47
2021/04/30 10:06:09;;;;;;;2.53;0.95;;;21.40;45.20;;;;;;5091239;28;20040;-54
2021/04/30 10:08:35;;;;;;;3.13;1.08;;;21.40;45.70;;;;;;5074172;28;20029;-51
2021/04/30 10:11:02;;;;;;;7.10;1.20;;;21.40;45.70;;;;;;5088768;28;20476;-50
2021/04/30 10:13:28;;;;;;;3.78;1.17;;;21.40;45.50;;;;;;5091998;28;20417;-49
2021/04/30 10:15:54;;;;;;;6.47;1.50;;;21.50;45.50;;;;;;5089586;28;20098;-49
2021/04/30 10:18:20;;;;;;;4.10;1.25;;;21.50;45.50;;;;;;5089460;28;20032;-46
2021/04/30 10:20:46;;;;;;;2.70;1.30;;;21.40;45.40;;;;;;5089642;28;20047;-48
2021/04/30 10:23:17;;;;;;;2.42;1.13;;;21.50;45.10;;;;;;5089885;28;20067;-47
2021/04/30 10:25:49;;;;;;;3.58;1.23;;;21.40;45.40;;;;;;5085404;28;20101;-43
2021/04/30 10:28:23;;;;;;;8.20;1.50;;;21.40;45.70;;;;;;5088728;28;20039;-52
2021/04/30 10:31:11;;;;;;;5.75;1.55;;;21.40;45.70;;;;;;5086901;28;20036;-53
2021/04/30 10:33:51;;;;;;;3.83;1.40;;;21.40;45.50;;;;;;5082473;28;20025;-49
2021/04/30 10:36:40;;;;;;;3.17;1.88;;;21.50;45.40;;;;;;5085329;28;20036;-47
2021/04/30 10:39:08;;;;;;;2.85;1.50;;;21.40;45.10;;;;;;5081438;28;20044;-50
2021/04/30 10:41:37;;;;;;;3.70;2.03;;;21.40;45.30;;;;;;5086609;28;20032;-44
2021/04/30 10:44:14;;;;;;;4.28;1.98;;;21.40;45.40;;;;;;5089468;28;20024;-50
2021/04/30 10:46:40;;;;;;;122.90;21.60;;;21.40;44.80;;;;;;5085503;28;20027;-49
2021/04/30 10:49:09;;;;;;;93.68;18.08;;;21.40;45.70;;;;;;5090098;28;20193;-48
2021/04/30 10:51:39;;;;;;;83.60;15.13;;;21.40;45.60;;;;;;5087329;28;20118;-46
2021/04/30 10:54:23;;;;;;;67.72;13.63;;;21.40;46.00;;;;;;5079815;28;20077;-49
2021/04/30 10:57:00;;;;;;;63.10;12.93;;;21.40;46.00;;;;;;5087694;28;20051;-54
2021/04/30 10:59:51;;;;;;;61.13;12.85;;;21.40;46.70;;;;;;5088828;28;20484;-46
2021/04/30 11:02:33;;;;;;;52.85;12.15;;;21.40;46.60;;;;;;5071764;28;20043;-47
2021/04/30 11:05:19;;;;;;;46.00;10.30;;;21.50;46.70;;;;;;5089954;28;20044;-51
2021/04/30 11:07:53;;;;;;;47.90;10.35;;;21.50;47.10;;;;;;5090708;28;20024;-51
2021/04/30 11:10:26;;;;;;;40.60;8.75;;;21.50;46.70;;;;;;5089040;28;20024;-48
2021/04/30 11:13:03;;;;;;;34.00;8.32;;;21.50;46.60;;;;;;5079609;28;20028;-59
2021/04/30 11:15:51;;;;;;;35.03;7.63;;;21.50;46.30;;;;;;5083953;28;20103;-53
2021/04/30 11:18:20;;;;;;;23.65;6.57;;;21.50;46.40;;;;;;5090000;28;20508;-53
2021/04/30 11:21:01;;;;;;;30.00;7.03;;;21.60;46.40;;;;;;5085408;28;20462;-50
2021/04/30 11:23:37;;;;;;;26.95;6.22;;;21.60;46.20;;;;;;5090890;28;20081;-53
2021/04/30 11:26:08;;;;;;;22.33;5.50;;;21.60;46.40;;;;;;5089713;28;20040;-49
2021/04/30 11:28:33;;;;;;;30.33;6.60;;;21.60;46.40;;;;;;5097080;28;20035;-47
2021/04/30 11:31:24;;;;;;;27.58;5.95;;;21.60;46.30;;;;;;5090103;28;20028;-50
2021/04/30 11:34:12;;;;;;;19.35;5.05;;;21.60;46.10;;;;;;5097345;28;20019;-56
2021/04/30 11:36:42;;;;;;;27.65;5.05;;;21.60;46.20;;;;;;5091647;28;20020;-51
2021/04/30 11:39:20;;;;;;;22.15;5.38;;;21.60;46.20;;;;;;5096179;28;20064;-51
2021/04/30 11:41:46;;;;;;;23.00;5.30;;;21.60;46.40;;;;;;5089691;28;20059;-52
2021/04/30 11:44:14;;;;;;;24.17;5.13;;;21.60;46.00;;;;;;5090403;28;20099;-48
2021/04/30 11:46:40;;;;;;;20.42;4.72;;;21.60;46.20;;;;;;5090755;28;20020;-46
2021/04/30 11:49:05;;;;;;;19.42;5.07;;;21.60;46.80;;;;;;5093219;28;20047;-51
2021/04/30 11:51:42;;;;;;;20.63;5.28;;;21.60;46.50;;;;;;5095028;28;20059;-51
2021/04/30 11:54:08;;;;;;;19.88;4.47;;;21.60;46.30;;;;;;5092337;28;20032;-48
2021/04/30 11:56:33;;;;;;;16.80;4.45;;;21.60;46.40;;;;;;5095956;28;20028;-47
2021/04/30 11:58:59;;;;;;;18.77;4.20;;;21.60;46.40;;;;;;5095047;28;20036;-48
2021/04/30 12:01:26;;;;;;;20.77;4.78;;;21.60;46.40;;;;;;5095130;28;20040;-52
2021/04/30 12:03:56;;;;;;;19.02;4.45;;;21.60;46.00;;;;;;5095380;28;20492;-57
2021/04/30 12:06:24;;;;;;;14.05;4.00;;;21.60;46.10;;;;;;5088531;28;20039;-48
2021/04/30 12:08:52;;;;;;;16.85;4.32;;;21.60;46.10;;;;;;5090239;28;20465;-48
2021/04/30 12:11:23;;;;;;;14.63;4.15;;;21.60;46.00;;;;;;5096616;28;20028;-45
2021/04/30 12:13:53;;;;;;;16.85;4.07;;;21.60;46.00;;;;;;5096927;28;20024;-45
2021/04/30 12:16:20;;;;;;;13.90;3.53;;;21.60;45.50;;;;;;5091489;28;20032;-54
2021/04/30 12:18:47;;;;;;;14.55;3.80;;;21.60;46.00;;;;;;5090110;28;20036;-45
2021/04/30 12:21:32;;;;;;;20.60;4.68;;;21.60;45.90;;;;;;5096555;28;20106;-49
2021/04/30 12:23:59;;;;;;;17.35;3.88;;;21.60;46.10;;;;;;5096071;28;20024;-51
2021/04/30 12:26:35;;;;;;;16.27;4.28;;;21.60;45.70;;;;;;5089774;28;20032;-47
2021/04/30 12:29:07;;;;;;;17.23;3.97;;;21.60;46.30;;;;;;5093512;28;20035;-44
2021/04/30 12:31:33;;;;;;;9.35;3.33;;;21.60;46.30;;;;;;5095912;28;20032;-47
2021/04/30 12:33:59;;;;;;;12.60;3.50;;;21.60;46.40;;;;;;5089057;28;20032;-47
2021/04/30 12:36:27;;;;;;;12.27;4.00;;;21.60;46.10;;;;;;5094445;28;20047;-50
2021/04/30 12:38:55;;;;;;;12.50;3.08;;;21.60;46.20;;;;;;5095518;28;20028;-51
2021/04/30 12:41:26;;;;;;;18.77;3.63;;;21.60;46.20;;;;;;5089699;28;20039;-43
2021/04/30 12:44:00;;;;;;;8.20;4.13;;;21.60;46.30;;;;;;5088699;28;20035;-52
2021/04/30 12:46:27;;;;;;;8.38;2.90;;;21.50;44.80;;;;;;5083885;28;20085;-46
2021/04/30 12:48:55;;;;;;;16.17;3.33;;;21.40;46.50;;;;;;5093476;28;20483;-54